Timeline UpdatesTrip UpdatesNews PostsPvt PostsTravel TipsAdmin PostsConv PostsFollowed PostsChat RequestsBlog PostsPNR Posts

Disclaimer
Search
 
 
Tue Sep 2, 2014 04:55:19 ISTHomeTrainsΣChainsAtlasPNRForumGalleryNewsFAQTripsMembersLoginFeedback
No Recent News for this Train
Other Trains in the News **new
Latest...
.
Tue Dec 31, 2013 (01:14PM)
⇐ Return Journey: Train# 11015

11016/Kushinagar Express

Time-Table HAS CHANGED.
Yesterday (11:29PM)
Change Departure Station:
Change Arrival Station:
Post a Train Travel TipPost a Train Travel Tip **new
Post a Comment/Question/Picture/VideoPost a Comment/Question/Picture/Video
Pantry/Catering
✓ Pantry Car Avbl
✓ Catering Avbl
RSA - Rake Sharing
No RSA.
Rake/Coach Composition
Loco-SLR-GEN-S1-S2-S3-S4-S5-S6-S7-S8-S9-S10-S11-S12-PC-S13-S14-A1-B1-B2-GEN-GEN-SLR
Loco
(GKP-JHS) GD-WDM-3A (JHS-LTT) BSL-WAP-4 Entry# 970760
News    PNR    Forum    Time-Table    Availability    Fare Chart    Map    Arr/Dep History    Trips    Gallery    ΣChains    X/O    Timeline    
Travel Time: 11h 15m    14 halts    Distance: 584 km    Avg Speed: 51 km/hr
Type: Mail/Express
Zone: CR/Central
Departs @ 00:40 (Avg 17m late)
Platform# 4
SMTWTFS
Lucknow Charbagh/LKO 
Arrives @ 11:55 (Avg 1h 42m late)
Platform# 1
SMTWTFS
Bhopal Junction/BPL 

14 halts. 82 intermediate Stations between Lucknow Charbagh and Bhopal Junction

Show ALL intermediate Stations  Show Old Time-Table

#CodeStation NameX/OArrivesAvgDepartsAvgHaltPFDay#KmSpeedElevZoneAddress
1GKPGorakhpur Junction (10)  -19:00+421-269.75484mNERGorakhpur 273001, Uttar Pradesh
2KLDKhalilabad (3)X  19:36 19:38+1619:38 19:40+172m11-235.85986mNERKhalilabad- 272175, Uttar Pradesh
3BSTBasti (4)X  20:10+1420:15+175m11-206.38090mNERBasti 272001, Uttar Pradesh
4BVBabhnan (2)  20:38+2320:40+242m11-175.564101mNERDistrict- Basti, Uttar Pradesh
5MURMankapur Junction (5)  21:12 21:08+1821:14 21:10+182m21-145.756104mNERDistrict Gonda, Uttar Pradesh
6GDGonda Junction (3)X  21:40+1921:45+205m11-117.952110mNERGonda 271001, Uttar Pradesh
7BBKBarabanki Junction (4)X  23:28+1423:30+162m21-28.529122mNRPin-225001, Uttar Pradesh
8LKO»Lucknow Charbagh (9)»X  00:25 00:30+1900:40+1715 10m420.062123mNR226004, Uttar Pradesh
9ONUnnao Junction (5)XO  01:34 01:33+1901:36 01:35+192m--254.626129mNRUnnao, Uttar Pradesh
10CNBKanpur Central (10)  02:15+2002:25+2510m4272.033128mNCRKANPUR-208 001, Uttar Pradesh
11BZMBhimsen (1)  02:51+3702:53+422m1286.170136mNCRKanpur, Uttar Pradesh
12PHNPokhrayan (2)  03:30 03:31+4503:32 03:33+462m12130.560133mNCRPukhrayan, Uttar Pradesh
13KPIKalpi  03:47 03:48+4903:49 03:50+522m12145.566114mNCRKalpi Orai(05162-252206), Uttar Pradesh
14ORAIOrai (3)  04:14 04:20+1:0404:21 04:22+1:037 2m22178.374139mNCROrai(05162-252206), Uttar Pradesh
15AITAit Junction (2)X  04:39 04:42+1:1004:41 04:44+1:132m12202.964154mNCROrai(05162-252206), Uttar Pradesh
16CGNChirgaonX  05:38+1:2105:40+1:252m12260.522192mNCRChirgaon, Uttar Pradesh
17JHSJhansi Junction (7)07:05+5007:15 07:17+1:0310 12m12292.367259mNCRJhansi, Uttar Pradesh
18BABBabina (3)  07:43 07:40+1:0707:45 07:42+1:072m12317.886285mNCRBabina, Uttar Pradesh
19LARLalitpur (3)  08:30 08:27+1:1108:32 08:29+1:112m12382.650373mNCRLalitpur, Uttar Pradesh
20BINABina Junction (4)X  09:45+1:0609:50+1:105m42445.586414mWCRJn Pt - KATNI/GUNA/ BPL/JHS, Madhya Pradesh
21BAQGanj Basoda (4)  10:22+1:2810:24+1:372m22491.284 WCRVidisha, Madhya Pradesh
22BHSVidisha (3)X  10:52+1:4910:54+1:502m22530.553 WCRVidisha, Madhya Pradesh
23BPL•Bhopal Junction (6)•X  12:00 11:55+1:4212:05 12:00+1:515m12584.138497mWCRBhopal, Madhya Pradesh
24HBJBhopal HabibGanj (5)  12:15 12:10+1:4812:17 12:12+1:492m42590.364496mWCRHabibGanj, Madhya Pradesh
25MDDPMandi Dip (1)  12:32 12:27+1:5512:34 12:29+1:552m12606.464 WCRMandideep, Madhya Pradesh
26HBDHoshangabad (2)  13:22 13:17+2:0713:24 13:19+2:082m--2657.735308mWCRHoshangabad, Madhya Pradesh
27ETItarsi Junction (7)  13:50+1:5813:55+2:035m22675.864329mWCRItarsi 461111, Madhya Pradesh
28TBNTimarni (2)  14:53+2:0614:55+2:062m12737.565308mWCRTimarni, Madhya Pradesh
29HDHarda (3)  15:09 15:08+2:0315:10+2:041 2m32751.686289mWCRHarda, Madhya Pradesh
30KKNKhirkiya (2)X  15:32+2:0915:34+2:092m12783.145281mWCRSH 15, Madhya Pradesh
31KNWKhandwa Junction (5)X  17:15+1:2317:20+1:235m12859.278310mCRKhandwa, Madhya Pradesh
32NPNRNepanagar (2)  17:53+1:2617:55+1:282m--2901.868289mCRState Highway 27, Madhya Pradesh
33BAUBurhanpur (2)X  18:18+1:3318:20+1:332m12928.176269mCRBurhanpur, Madhya Pradesh
34RVRaver (2)X  18:36+1:3318:38+1:342m--2948.364242mCRJalgaon, Maharashtra
35BSLBhusaval Junction (8)X  19:10+1:3419:20+1:3810m32982.663208mCRBhusaval 425201, Maharashtra
36JLJalgaon Junction (4)  19:43+1:3819:45+1:392m221006.792213mCRJalgaon 425001, Maharashtra
37PCPachora Junction (4)X  20:16+2:0020:18+2:012m--21054.454264mCRPachora 424201, Maharashtra
38CSNChalisgaon Junction (3)XO  21:08+1:4721:10+1:502m--21099.259352mCRChalisgaon 424101, Maharashtra
39NGNNandgaon (3)  21:53+1:4521:55+1:472m--21141.476476mCRNandgaon, Maharashtra
40MMRManmad Junction (6)XO  22:15+1:5722:20+2:005m321166.875580mCRManmad 423104, Maharashtra
41NKNasik Road (3)X  23:15 23:18+1:4923:20+1:485 2m321239.543563mCRNashik 422101, Maharashtra
42DVLDevlali (3)X  23:28+1:5723:30+1:572m221245.325561mCRDist. Nashik 422401, Maharashtra
43IGPIgatpuri (4)X  01:15 01:18+1:0101:20+1:095 2m--31290.245589mCRIgatpuri 422403, Maharashtra
44KYNKalyan Junction (8)O  03:10+1:0503:15+1:035m531372.06710mCRKalyan 421301, Maharashtra
45TNAThane (10)O  03:33+5303:35+532m831392.22210mCRThane (West) 400602, Maharashtra
46LTTMumbai Lokmanya Tilak Terminus (5)  04:20+52-531408.7-7mCRMumbai - 400089, Maharashtra
Scroll to Top
Scroll to Bottom